Thunder radar more information blitzortung!


Radar de pluja more information rain snow radar


Visita la nostra xarxa de llocs de meteo:

Template documentation
and downloads

And another site



No particular awareness of the weather is required.    There are no Weather-warnings

Pagina Historial Weather Underground text

Diari Resum February 26, 2016 Unitats:  Mètric    Imperial   Tant
« Previous Dia
SegĂźent Dia »
Diari Setmana Mensual Anual Personalitzada
  Maxima: Minima: Media:
Temperatura: 14.8 °C 6.2 °C 10.7 °C
Punt de rosada: 6.6 °C -0.6 °C 2.7 °C
Humitat: 82 % 47 % 59 %
Wind Speed: 19.3 km/h 0.0 km/h 4.3 km/h
RĂ fegues de vent: 24.1 km/h - -
Vent:- - SSE
Pression baro: 1013.8 hPa 988.7 hPa -
Precipitacions: 0.0 mm    
Historical Graphs
 
 
Dades de taula per February 26, 2016
Temps Temperatura Punt de rosada Pression baro Vent Wind Speed RĂ fegues de vent Humitat Rainfall Rate (Hourly)
00:00 7.3 °C 0.3 °C 1013.8 hPa Calm   3.2 km/h 61 % 0.0 mm
00:10 7.1 °C 0.1 °C 1013.8 hPa Calm     61 % 0.0 mm
00:20 7.1 °C 0.1 °C 1013.8 hPa WNW 1.6 km/h 4.8 km/h 61 % 0.0 mm
00:30 6.8 °C -0.2 °C 1013.8 hPa Calm   3.2 km/h 61 % 0.0 mm
00:40 6.6 °C -0.4 °C 1013.8 hPa WNW 1.6 km/h 1.6 km/h 61 % 0.0 mm
00:50 6.7 °C -0.3 °C 1013.8 hPa NW 1.6 km/h 3.2 km/h 61 % 0.0 mm
01:00 6.5 °C -0.5 °C 1013.8 hPa Calm   3.2 km/h 61 % 0.0 mm
01:10 6.4 °C -0.6 °C 1012.8 hPa WNW 1.6 km/h 3.2 km/h 61 % 0.0 mm
01:20 6.2 °C -0.6 °C 1012.8 hPa Calm   3.2 km/h 62 % 0.0 mm
01:30 6.5 °C -0.3 °C 1012.8 hPa Calm   4.8 km/h 62 % 0.0 mm
01:40 7.1 °C 0.5 °C 1012.8 hPa West 1.6 km/h 6.4 km/h 63 % 0.0 mm
01:50 7.0 °C 0.4 °C 1012.8 hPa North 3.2 km/h 4.8 km/h 63 % 0.0 mm
02:00 7.0 °C 0.4 °C 1012.8 hPa East 1.6 km/h 3.2 km/h 63 % 0.0 mm
02:10 6.9 °C 0.1 °C 1012.8 hPa ESE 1.6 km/h 3.2 km/h 62 % 0.0 mm
02:20 7.0 °C 0.2 °C 1012.8 hPa West 1.6 km/h 1.6 km/h 62 % 0.0 mm
02:30 7.4 °C 0.6 °C 1012.8 hPa West 3.2 km/h 3.2 km/h 62 % 0.0 mm
02:40 8.0 °C 1.2 °C 1012.8 hPa NNW 3.2 km/h 4.8 km/h 62 % 0.0 mm
02:50 8.2 °C 1.3 °C 1012.8 hPa North 3.2 km/h 6.4 km/h 62 % 0.0 mm
03:00 8.6 °C 1.5 °C 1012.8 hPa North 1.6 km/h 6.4 km/h 61 % 0.0 mm
03:10 9.0 °C 1.9 °C 1013.8 hPa NNE 1.6 km/h 3.2 km/h 61 % 0.0 mm
03:20 9.0 °C 1.7 °C 1012.8 hPa NNE 3.2 km/h 6.4 km/h 60 % 0.0 mm
03:30 9.1 °C 1.7 °C 1012.8 hPa NE 3.2 km/h 9.7 km/h 60 % 0.0 mm
03:40 9.3 °C 1.9 °C 1012.8 hPa NNE 4.8 km/h 9.7 km/h 60 % 0.0 mm
03:50 9.3 °C 1.7 °C 1013.8 hPa NNE 8.0 km/h 9.7 km/h 59 % 0.0 mm
04:00 9.5 °C 1.9 °C 1013.8 hPa NE 4.8 km/h 6.4 km/h 59 % 0.0 mm
04:10 9.6 °C 1.7 °C 1013.8 hPa NE 8.0 km/h 9.7 km/h 58 % 0.0 mm
04:20 10.0 °C 2.1 °C 1011.7 hPa NE 1.6 km/h 9.7 km/h 58 % 0.0 mm
04:30 10.5 °C 2.3 °C 1011.7 hPa NE 4.8 km/h 4.8 km/h 57 % 0.0 mm
04:40 10.9 °C 2.7 °C 1011.7 hPa NE 4.8 km/h 4.8 km/h 57 % 0.0 mm
04:50 11.0 °C 2.6 °C 1011.7 hPa NNE 1.6 km/h 3.2 km/h 56 % 0.0 mm
05:00 11.4 °C 2.7 °C 1011.7 hPa Calm   4.8 km/h 55 % 0.0 mm
05:10 11.5 °C 2.8 °C 1010.7 hPa NE 3.2 km/h 4.8 km/h 55 % 0.0 mm
05:20 11.6 °C 2.8 °C 1011.7 hPa NE 1.6 km/h 3.2 km/h 55 % 0.0 mm
05:25 11.8 °C 2.8 °C 1011.7 hPa NE 1.6 km/h 4.8 km/h 54 % 0.0 mm
11:23 11.4 °C 1.9 °C 1013.8 hPa North 3.7 km/h   52 % 0.0 mm
11:28 11.7 °C 2.7 °C 1011.7 hPa NNE 5.6 km/h 5.6 km/h 54 % 0.0 mm
11:38 11.6 °C 2.6 °C 1011.7 hPa ESE 5.3 km/h 5.3 km/h 54 % 0.0 mm
11:43 11.8 °C 2.8 °C 1011.7 hPa East 3.7 km/h 3.7 km/h 54 % 0.0 mm
11:48 12.0 °C 2.9 °C 1011.7 hPa ENE 4.7 km/h 4.7 km/h 54 % 0.0 mm
11:53 12.3 °C 3.2 °C 1011.7 hPa SW 7.4 km/h 7.4 km/h 54 % 0.0 mm
11:58 12.9 °C 3.6 °C 1011.7 hPa WSW 6.9 km/h 6.9 km/h 53 % 0.0 mm
12:03 12.9 °C 3.6 °C 1010.7 hPa West 7.6 km/h 7.6 km/h 53 % 0.0 mm
12:08 13.0 °C 3.4 °C 1010.7 hPa WSW 6.1 km/h 6.1 km/h 52 % 0.0 mm
12:18 13.2 °C 3.6 °C 1010.7 hPa WSW 3.7 km/h 3.7 km/h 52 % 0.0 mm
12:23 13.2 °C 3.6 °C 1010.7 hPa SSE 7.4 km/h 7.4 km/h 52 % 0.0 mm
12:28 13.6 °C 3.9 °C 1010.7 hPa SW 8.7 km/h 8.7 km/h 52 % 0.0 mm
12:33 13.6 °C 3.7 °C 1010.0 hPa SW 7.4 km/h 7.4 km/h 51 % 0.0 mm
12:38 13.6 °C 3.4 °C 1010.0 hPa SSE 11.1 km/h 11.1 km/h 50 % 0.0 mm
12:43 14.0 °C 4.0 °C 1010.0 hPa West 5.6 km/h 5.6 km/h 51 % 0.0 mm
12:48 14.6 °C 4.3 °C 1010.0 hPa SSE 6.9 km/h 6.9 km/h 50 % 0.0 mm
12:53 14.8 °C 4.4 °C 1010.0 hPa SW 9.3 km/h 9.3 km/h 50 % 0.0 mm
12:58 14.6 °C 4.3 °C 1010.0 hPa SSW 9.5 km/h 9.5 km/h 50 % 0.0 mm
13:03 14.2 °C 3.6 °C 1010.0 hPa North 3.9 km/h 3.9 km/h 49 % 0.0 mm
13:08 14.0 °C 3.4 °C 1010.0 hPa SW 10.0 km/h 10.0 km/h 49 % 0.0 mm
13:13 13.8 °C 3.3 °C 1010.0 hPa SSW 9.3 km/h 9.3 km/h 49 % 0.0 mm
13:18 14.0 °C 3.4 °C 1009.0 hPa South 3.9 km/h 4.2 km/h 49 % 0.0 mm
13:23 14.2 °C 3.3 °C 1009.0 hPa SSW 7.4 km/h 7.4 km/h 48 % 0.0 mm
13:28 14.2 °C 3.3 °C 1009.0 hPa West 9.3 km/h 9.3 km/h 48 % 0.0 mm
13:33 14.4 °C 3.5 °C 1008.0 hPa South 1.9 km/h 2.3 km/h 48 % 0.0 mm
13:43 14.1 °C 3.2 °C 1008.0 hPa WNW 3.7 km/h 5.3 km/h 48 % 0.0 mm
13:48 14.0 °C 3.2 °C 1008.0 hPa SSW 8.7 km/h 8.7 km/h 48 % 0.0 mm
13:53 14.1 °C 3.2 °C 1008.0 hPa South 3.7 km/h 3.7 km/h 48 % 0.0 mm
13:58 14.2 °C 3.3 °C 1008.0 hPa SSW 5.8 km/h 5.8 km/h 48 % 0.0 mm
14:03 14.1 °C 2.9 °C 1008.0 hPa South 6.1 km/h 6.1 km/h 47 % 0.0 mm
14:13 14.0 °C 2.8 °C 1008.0 hPa SSE 5.6 km/h 5.6 km/h 47 % 0.0 mm
14:18 13.9 °C 3.1 °C 1008.0 hPa WSW 5.3 km/h   48 % 0.0 mm
14:23 14.0 °C 3.2 °C 1008.0 hPa WNW 5.0 km/h 5.0 km/h 48 % 0.0 mm
14:28 14.0 °C 3.2 °C 1008.0 hPa SW 3.7 km/h 3.7 km/h 48 % 0.0 mm
14:33 14.1 °C 3.2 °C 1008.0 hPa SSE 3.7 km/h 3.7 km/h 48 % 0.0 mm
14:43 14.2 °C 3.1 °C 1008.0 hPa Calm     47 % 0.0 mm
14:48 14.5 °C 3.6 °C 1007.0 hPa West 5.6 km/h 5.6 km/h 48 % 0.0 mm
14:53 14.6 °C 3.4 °C 1007.0 hPa ESE 6.1 km/h 6.1 km/h 47 % 0.0 mm
14:58 14.4 °C 3.2 °C 1007.0 hPa East 5.6 km/h 5.6 km/h 47 % 0.0 mm
15:03 14.4 °C 3.2 °C 1007.0 hPa SW 5.8 km/h 5.8 km/h 47 % 0.0 mm
15:08 14.1 °C 2.9 °C 1007.0 hPa SW 3.9 km/h 3.9 km/h 47 % 0.0 mm
15:13 14.0 °C 2.8 °C 1007.0 hPa ENE 7.6 km/h 7.6 km/h 47 % 0.0 mm
15:18 13.7 °C 2.6 °C 1007.0 hPa East 5.6 km/h 5.8 km/h 47 % 0.0 mm
15:28 13.6 °C 2.5 °C 1007.0 hPa ESE 5.3 km/h 5.3 km/h 47 % 0.0 mm
15:33 13.5 °C 2.4 °C 1006.0 hPa ESE 9.3 km/h 9.3 km/h 47 % 0.0 mm
15:38 13.4 °C 2.6 °C 1006.0 hPa ESE 5.8 km/h 7.2 km/h 48 % 0.0 mm
15:48 13.2 °C 2.4 °C 1006.0 hPa ESE 11.9 km/h 11.9 km/h 48 % 0.0 mm
15:53 13.2 °C 2.4 °C 1006.0 hPa ESE 9.3 km/h 9.3 km/h 48 % 0.0 mm
16:03 13.1 °C 2.3 °C 1006.0 hPa East 13.0 km/h 13.0 km/h 48 % 0.0 mm
16:08 13.0 °C 2.5 °C 1006.0 hPa SSE 7.6 km/h 7.6 km/h 49 % 0.0 mm
16:13 13.0 °C 2.5 °C 1006.0 hPa South 9.3 km/h 9.3 km/h 49 % 0.0 mm
16:18 13.0 °C 2.5 °C 1006.0 hPa ESE 5.6 km/h 5.6 km/h 49 % 0.0 mm
16:23 13.0 °C 2.5 °C 1006.0 hPa ESE 7.4 km/h 7.4 km/h 49 % 0.0 mm
16:38 12.9 °C 2.7 °C 1006.0 hPa SW 4.2 km/h 4.2 km/h 50 % 0.0 mm
16:43 12.9 °C 2.7 °C 1006.0 hPa SW 7.4 km/h 7.4 km/h 50 % 0.0 mm
16:48 12.7 °C 2.6 °C 1006.0 hPa SW 13.0 km/h 13.0 km/h 50 % 0.0 mm
16:58 12.4 °C 2.3 °C 1006.0 hPa SW 9.3 km/h 9.3 km/h 50 % 0.0 mm
17:03 12.4 °C 2.3 °C 1006.0 hPa SW 7.4 km/h 7.4 km/h 50 % 0.0 mm
17:08 12.4 °C 2.3 °C 1006.0 hPa SW 6.1 km/h 6.1 km/h 50 % 0.0 mm
17:13 12.4 °C 2.3 °C 1006.0 hPa WSW 5.6 km/h 5.6 km/h 50 % 0.0 mm
17:18 12.4 °C 2.3 °C 1007.0 hPa SW 9.5 km/h 9.5 km/h 50 % 0.0 mm
17:20 8.9 °C 2.2 °C 1000.9 hPa North 1.6 km/h 1.6 km/h 63 % 0.0 mm
17:23 12.3 °C 2.2 °C 1007.0 hPa SW 7.4 km/h 7.4 km/h 50 % 0.0 mm
17:28 12.2 °C 2.1 °C 1007.0 hPa WSW 7.4 km/h 7.4 km/h 50 % 0.0 mm
17:30 8.8 °C 2.1 °C 1000.9 hPa NNE 1.6 km/h 3.2 km/h 63 % 0.0 mm
17:33 12.1 °C 2.0 °C 1006.0 hPa SW 7.4 km/h 7.4 km/h 50 % 0.0 mm
17:38 12.0 °C 1.9 °C 1006.0 hPa SW 9.3 km/h 9.3 km/h 50 % 0.0 mm
17:40 8.8 °C 2.3 °C 999.9 hPa NE 3.2 km/h 4.8 km/h 64 % 0.0 mm
17:43 11.8 °C 2.0 °C 1006.0 hPa SSW 5.6 km/h 5.6 km/h 51 % 0.0 mm
17:48 11.8 °C 2.0 °C 1005.0 hPa WSW 3.9 km/h 3.9 km/h 51 % 0.0 mm
17:50 8.8 °C 2.3 °C 999.9 hPa ENE 1.6 km/h 3.2 km/h 64 % 0.0 mm
17:53 11.7 °C 1.9 °C 1005.0 hPa SW 5.6 km/h 5.6 km/h 51 % 0.0 mm
17:58 11.7 °C 1.9 °C 1005.0 hPa WSW 3.7 km/h   51 % 0.0 mm
18:00 8.9 °C 2.7 °C 999.9 hPa East 1.6 km/h 1.6 km/h 65 % 0.0 mm
18:03 11.7 °C 1.9 °C 1005.0 hPa WSW 3.7 km/h 3.7 km/h 51 % 0.0 mm
18:10 8.9 °C 2.4 °C 1000.9 hPa East 1.6 km/h 4.8 km/h 64 % 0.0 mm
18:13 11.6 °C 2.1 °C 1005.0 hPa WSW 5.6 km/h 5.6 km/h 52 % 0.0 mm
18:18 11.5 °C 2.0 °C 1005.0 hPa SW 6.1 km/h 6.1 km/h 52 % 0.0 mm
18:20 8.9 °C 2.4 °C 998.9 hPa ENE 3.2 km/h 4.8 km/h 64 % 0.0 mm
18:23 11.4 °C 2.2 °C 1005.0 hPa SSW 9.3 km/h 9.3 km/h 53 % 0.0 mm
18:30 8.8 °C 2.3 °C 998.9 hPa East 3.2 km/h 6.4 km/h 64 % 0.0 mm
18:33 11.3 °C 2.3 °C 1005.0 hPa SW 2.3 km/h 2.3 km/h 54 % 0.0 mm
18:38 11.2 °C 2.2 °C 1005.0 hPa SSW 5.6 km/h 5.6 km/h 54 % 0.0 mm
18:40 8.8 °C 2.6 °C 998.9 hPa East 1.6 km/h 3.2 km/h 65 % 0.0 mm
18:43 11.1 °C 2.4 °C 1005.0 hPa WSW 7.4 km/h 7.4 km/h 55 % 0.0 mm
18:58 10.8 °C 2.4 °C 1005.0 hPa SW 5.6 km/h 5.6 km/h 56 % 0.0 mm
19:00 8.8 °C 2.6 °C 998.9 hPa ENE 1.6 km/h 3.2 km/h 65 % 0.0 mm
19:03 10.8 °C 2.4 °C 1005.0 hPa SW 5.3 km/h 5.3 km/h 56 % 0.0 mm
19:08 10.7 °C 2.3 °C 1005.0 hPa SW 2.6 km/h 2.6 km/h 56 % 0.0 mm
19:10 8.8 °C 2.6 °C 997.9 hPa ENE 1.6 km/h 3.2 km/h 65 % 0.0 mm
19:13 10.6 °C 2.4 °C 1005.0 hPa SW 3.7 km/h 3.7 km/h 57 % 0.0 mm
19:18 10.4 °C 2.2 °C 1003.9 hPa Calm     57 % 0.0 mm
19:20 8.8 °C 2.8 °C 997.9 hPa Calm   1.6 km/h 66 % 0.0 mm
19:23 10.3 °C 2.4 °C 1003.9 hPa Calm     58 % 0.0 mm
19:30 8.6 °C 2.8 °C 997.9 hPa East 4.8 km/h 4.8 km/h 67 % 0.0 mm
19:33 10.1 °C 2.2 °C 1003.9 hPa Calm     58 % 0.0 mm
19:38 10.0 °C 2.3 °C 1003.9 hPa Calm     59 % 0.0 mm
19:40 8.4 °C 2.8 °C 997.9 hPa Calm   4.8 km/h 68 % 0.0 mm
19:43 10.0 °C 2.3 °C 1003.9 hPa Calm     59 % 0.0 mm
19:48 9.9 °C 2.0 °C 1002.9 hPa SW 2.6 km/h   58 % 0.0 mm
19:50 8.4 °C 3.1 °C 997.9 hPa East 4.8 km/h 6.4 km/h 69 % 0.0 mm
19:53 9.8 °C 1.9 °C 1002.9 hPa WSW 2.3 km/h 2.3 km/h 58 % 0.0 mm
19:58 9.6 °C 1.7 °C 1002.9 hPa SW 3.7 km/h 3.7 km/h 58 % 0.0 mm
20:00 8.4 °C 3.2 °C 997.9 hPa East 3.2 km/h 4.8 km/h 70 % 0.0 mm
20:03 9.6 °C 1.9 °C 1002.9 hPa SW 3.7 km/h 3.7 km/h 59 % 0.0 mm
20:08 9.6 °C 1.9 °C 1002.9 hPa SW 3.7 km/h 3.7 km/h 59 % 0.0 mm
20:10 8.5 °C 3.7 °C 996.8 hPa East 3.2 km/h 4.8 km/h 72 % 0.0 mm
20:13 9.7 °C 2.3 °C 1002.9 hPa WSW 3.9 km/h   60 % 0.0 mm
20:18 9.7 °C 2.3 °C 1003.9 hPa WSW 3.7 km/h 3.7 km/h 60 % 0.0 mm
20:20 8.5 °C 3.9 °C 995.8 hPa ENE 1.6 km/h 9.7 km/h 73 % 0.0 mm
20:23 9.8 °C 2.6 °C 1003.9 hPa Calm     61 % 0.0 mm
20:30 8.5 °C 4.1 °C 995.8 hPa ENE 1.6 km/h 6.4 km/h 74 % 0.0 mm
20:33 9.9 °C 2.7 °C 1003.9 hPa Calm     61 % 0.0 mm
20:38 9.8 °C 2.6 °C 1003.9 hPa SW 1.9 km/h   61 % 0.0 mm
20:40 8.5 °C 4.5 °C 995.8 hPa East 3.2 km/h 6.4 km/h 76 % 0.0 mm
20:43 9.8 °C 2.6 °C 1003.9 hPa SW 3.2 km/h   61 % 0.0 mm
20:48 9.8 °C 2.6 °C 1002.9 hPa Calm     61 % 0.0 mm
20:50 8.5 °C 4.5 °C 994.8 hPa ENE 3.2 km/h 6.4 km/h 76 % 0.0 mm
20:53 9.9 °C 2.7 °C 1002.9 hPa NE 2.6 km/h 2.6 km/h 61 % 0.0 mm
20:58 9.9 °C 2.7 °C 1002.9 hPa Calm     61 % 0.0 mm
21:03 9.8 °C 2.8 °C 1002.9 hPa Calm     62 % 0.0 mm
21:08 9.8 °C 2.8 °C 1002.9 hPa Calm     62 % 0.0 mm
21:10 8.6 °C 5.0 °C 994.8 hPa ENE 3.2 km/h 6.4 km/h 78 % 0.0 mm
21:13 9.8 °C 2.8 °C 1002.9 hPa Calm     62 % 0.0 mm
21:18 9.8 °C 2.6 °C 1002.9 hPa NE 3.7 km/h 3.7 km/h 61 % 0.0 mm
21:20 8.7 °C 5.3 °C 993.8 hPa NE 3.2 km/h 4.8 km/h 79 % 0.0 mm
21:28 9.8 °C 2.6 °C 1002.9 hPa NE 3.7 km/h 3.7 km/h 61 % 0.0 mm
21:30 8.7 °C 5.3 °C 993.8 hPa NE 3.2 km/h 6.4 km/h 79 % 0.0 mm
21:33 9.8 °C 2.6 °C 1001.9 hPa NE 2.3 km/h 2.3 km/h 61 % 0.0 mm
21:38 9.7 °C 2.6 °C 1001.9 hPa NNE 3.9 km/h 3.9 km/h 61 % 0.0 mm
21:48 9.7 °C 2.6 °C 1001.9 hPa NNE 3.7 km/h 3.7 km/h 61 % 0.0 mm
21:50 8.8 °C 5.6 °C 992.8 hPa NNE 3.2 km/h 4.8 km/h 80 % 0.0 mm
21:53 9.6 °C 2.4 °C 1001.9 hPa NE 3.7 km/h   61 % 0.0 mm
21:58 9.6 °C 2.4 °C 1001.9 hPa NE 1.9 km/h 1.9 km/h 61 % 0.0 mm
22:03 9.5 °C 2.3 °C 1001.9 hPa NNE 3.9 km/h 3.9 km/h 61 % 0.0 mm
22:08 9.5 °C 2.6 °C 1001.9 hPa NNE 1.9 km/h 1.9 km/h 62 % 0.0 mm
22:10 9.2 °C 6.1 °C 992.8 hPa NE 4.8 km/h 6.4 km/h 81 % 0.0 mm
22:13 9.4 °C 2.5 °C 1001.9 hPa Calm     62 % 0.0 mm
22:18 9.4 °C 2.3 °C 1001.9 hPa ENE 2.3 km/h 2.3 km/h 61 % 0.0 mm
22:20 9.4 °C 6.5 °C 991.8 hPa NE 8.0 km/h 9.7 km/h 82 % 0.0 mm
22:23 9.3 °C 2.4 °C 1001.9 hPa Calm     62 % 0.0 mm
22:28 9.2 °C 2.3 °C 1001.9 hPa SSW 1.9 km/h 1.9 km/h 62 % 0.0 mm
22:30 9.5 °C 6.6 °C 991.8 hPa NE 4.8 km/h 9.7 km/h 82 % 0.0 mm
22:33 9.2 °C 2.3 °C 1001.9 hPa NNE 3.7 km/h 3.7 km/h 62 % 0.0 mm
22:38 9.2 °C 2.3 °C 1001.9 hPa Calm     62 % 0.0 mm
22:40 9.5 °C 6.6 °C 990.7 hPa ENE 9.7 km/h 9.7 km/h 82 % 0.0 mm
22:43 9.1 °C 2.2 °C 1001.9 hPa Calm     62 % 0.0 mm
22:48 9.0 °C 2.1 °C 1000.9 hPa Calm     62 % 0.0 mm
22:50 9.5 °C 6.4 °C 990.1 hPa East 9.7 km/h 17.7 km/h 81 % 0.0 mm
22:53 8.9 °C 2.0 °C 1000.9 hPa NNW 1.4 km/h   62 % 0.0 mm
22:58 8.8 °C 1.9 °C 1000.9 hPa Calm     62 % 0.0 mm
23:00 9.5 °C 6.4 °C 990.1 hPa East 8.0 km/h 9.7 km/h 81 % 0.0 mm
23:03 8.7 °C 2.1 °C 999.9 hPa Calm     63 % 0.0 mm
23:08 8.7 °C 2.1 °C 999.9 hPa Calm     63 % 0.0 mm
23:10 9.5 °C 6.2 °C 988.7 hPa ENE 8.0 km/h 14.5 km/h 80 % 0.0 mm
23:20 9.5 °C 6.1 °C 990.7 hPa NE 14.5 km/h 24.1 km/h 79 % 0.0 mm
23:30 9.4 °C 5.9 °C 990.7 hPa NE 19.3 km/h 19.3 km/h 79 % 0.0 mm
23:40 9.0 °C 5.7 °C 988.7 hPa NE 8.0 km/h 16.1 km/h 80 % 0.0 mm
23:50 8.9 °C 5.8 °C 988.7 hPa East 8.0 km/h 9.7 km/h 81 % 0.0 mm
Meteo Sesrovires
Elogis d' Weather Underground - 3.5 mb

Guio original per  Jim McMurry - jmcmurry@mwt.net Adaptat per a la plantilla per  Wim van der Kuil - Leuven-Template.eu

Trobareu la nostra informacio del temps tambe a:

Weather Underground

AWEKAS